createdAt,value
2023-01-13T00:00:32.305Z,20.33
2023-01-13T00:03:37.596Z,20.83
2023-01-13T00:06:39.971Z,20.52
2023-01-13T00:09:42.623Z,20.55
2023-01-13T00:12:44.943Z,20.83
2023-01-13T00:16:05.759Z,21.23
2023-01-13T00:19:08.105Z,19.83
2023-01-13T00:22:10.685Z,20.58
2023-01-13T00:25:13.135Z,19.58
2023-01-13T00:28:15.689Z,21.77
2023-01-13T00:31:20.642Z,20.02
2023-01-13T00:34:23.358Z,19.75
2023-01-13T00:37:26.147Z,21.23
2023-01-13T00:40:28.732Z,20.40
2023-01-13T00:43:32.642Z,19.30
2023-01-13T00:46:35.307Z,20.10
2023-01-13T00:49:37.638Z,19.95
2023-01-13T00:52:42.207Z,20.73
2023-01-13T00:55:44.708Z,19.95
2023-01-13T00:58:48.056Z,19.35
2023-01-13T01:01:50.356Z,18.58
2023-01-13T01:04:53.006Z,19.37
2023-01-13T01:07:55.372Z,19.65
2023-01-13T01:11:06.202Z,18.67
2023-01-13T01:14:11.760Z,19.60
2023-01-13T01:17:14.345Z,19.17
2023-01-13T01:20:17.221Z,19.83
2023-01-13T01:23:19.837Z,19.40
2023-01-13T01:26:26.543Z,19.83
2023-01-13T01:29:29.270Z,20.02
2023-01-13T01:32:34.320Z,19.45
2023-01-13T01:35:40.208Z,18.75
2023-01-13T01:38:42.846Z,18.58
2023-01-13T01:42:05.390Z,17.90
2023-01-13T01:45:22.616Z,18.35
2023-01-13T01:48:26.173Z,18.70
2023-01-13T01:51:33.795Z,17.33
2023-01-13T01:54:52.574Z,17.92
2023-01-13T01:58:25.868Z,18.15
2023-01-13T02:01:28.922Z,16.90
2023-01-13T02:04:36.358Z,17.17
2023-01-13T02:07:41.082Z,16.17
2023-01-13T02:10:48.213Z,18.10
2023-01-13T02:13:50.527Z,16.55
2023-01-13T02:17:16.274Z,17.27
2023-01-13T02:21:03.738Z,15.50
2023-01-13T02:24:53.592Z,15.68
2023-01-13T02:28:20.792Z,15.45
2023-01-13T02:31:42.103Z,15.30
2023-01-13T02:34:55.958Z,15.40
2023-01-13T02:38:00.607Z,15.15
2023-01-13T02:41:51.511Z,15.02
2023-01-13T02:45:02.449Z,15.10
2023-01-13T02:48:08.084Z,14.95
2023-01-13T02:51:16.702Z,15.05
2023-01-13T02:54:25.665Z,13.93
2023-01-13T02:57:31.676Z,14.80
2023-01-13T03:00:36.769Z,14.27
2023-01-13T03:03:39.399Z,14.77
2023-01-13T03:06:50.511Z,13.77
2023-01-13T03:10:11.210Z,13.62
2023-01-13T03:13:41.498Z,13.75
2023-01-13T03:16:49.983Z,13.32
2023-01-13T03:20:35.353Z,14.07
2023-01-13T03:23:50.787Z,14.27
2023-01-13T03:26:58.392Z,14.48
2023-01-13T03:30:37.544Z,13.95
2023-01-13T03:33:46.416Z,14.55
2023-01-13T03:36:54.097Z,13.65
2023-01-13T03:40:04.167Z,14.55
2023-01-13T03:43:30.767Z,14.02
2023-01-13T03:46:43.507Z,12.63
2023-01-13T03:49:52.459Z,13.00
2023-01-13T03:53:15.742Z,14.95
2023-01-13T03:56:30.653Z,13.83
2023-01-13T03:59:38.334Z,13.80
2023-01-13T04:03:11.303Z,14.10
2023-01-13T04:06:18.559Z,12.07
2023-01-13T04:09:20.880Z,13.57
2023-01-13T04:12:23.405Z,14.60
2023-01-13T04:15:28.637Z,13.82
2023-01-13T04:18:31.728Z,13.25
2023-01-13T04:21:35.165Z,13.10
2023-01-13T04:24:37.726Z,12.70
2023-01-13T04:27:40.055Z,12.88
2023-01-13T04:30:43.831Z,12.88
2023-01-13T04:33:46.150Z,13.68
2023-01-13T04:36:48.782Z,13.00
2023-01-13T04:39:51.263Z,12.13
2023-01-13T04:42:53.872Z,12.98
2023-01-13T04:45:56.380Z,13.25
2023-01-13T04:48:59.089Z,11.52
2023-01-13T04:52:03.784Z,14.23
2023-01-13T04:55:07.622Z,12.77
2023-01-13T04:58:10.998Z,12.63
2023-01-13T05:01:13.710Z,12.82
2023-01-13T05:04:17.103Z,12.40
2023-01-13T05:07:25.653Z,13.57
2023-01-13T05:10:28.113Z,13.40
2023-01-13T05:13:49.323Z,13.70
2023-01-13T05:17:00.541Z,13.07
2023-01-13T05:20:04.842Z,13.48
2023-01-13T05:23:25.777Z,12.27
2023-01-13T05:26:28.427Z,14.07
2023-01-13T05:29:30.783Z,12.48
2023-01-13T05:32:33.434Z,13.07
2023-01-13T05:35:39.138Z,14.43
2023-01-13T05:38:42.266Z,13.65
2023-01-13T05:42:03.378Z,13.23
2023-01-13T05:45:06.502Z,13.52
2023-01-13T05:48:08.788Z,13.68
2023-01-13T05:51:13.044Z,13.98
2023-01-13T05:54:15.352Z,13.27
2023-01-13T05:57:17.993Z,12.73
2023-01-13T06:00:20.699Z,13.40
2023-01-13T06:03:24.714Z,12.43
2023-01-13T06:06:27.065Z,12.65
2023-01-13T06:09:29.736Z,13.07
2023-01-13T06:12:32.123Z,12.90
2023-01-13T06:15:34.731Z,12.90
2023-01-13T06:18:37.042Z,13.30
2023-01-13T06:21:40.572Z,13.98
2023-01-13T06:24:45.897Z,13.88
2023-01-13T06:27:49.349Z,13.13
2023-01-13T06:30:56.973Z,13.80
2023-01-13T06:34:09.091Z,13.38
2023-01-13T06:37:15.116Z,12.23
2023-01-13T06:40:18.269Z,14.02
2023-01-13T06:43:20.786Z,14.35
2023-01-13T06:46:23.529Z,12.32
2023-01-13T06:49:25.894Z,14.77
2023-01-13T06:52:30.496Z,12.70
2023-01-13T06:55:32.840Z,13.40
2023-01-13T06:58:35.537Z,13.45
2023-01-13T07:01:38.039Z,13.40
2023-01-13T07:04:40.916Z,13.13
2023-01-13T07:07:43.562Z,12.63
2023-01-13T07:10:46.476Z,12.40
2023-01-13T07:14:07.711Z,11.73
2023-01-13T07:17:10.611Z,11.27
2023-01-13T07:20:13.155Z,11.70
2023-01-13T07:23:15.804Z,11.63
2023-01-13T07:26:18.488Z,11.63
2023-01-13T07:29:24.294Z,12.13
2023-01-13T07:32:26.649Z,12.50
2023-01-13T07:35:29.301Z,12.45
2023-01-13T07:38:33.275Z,11.55
2023-01-13T07:41:54.503Z,11.15
2023-01-13T07:44:59.023Z,11.25
2023-01-13T07:48:01.781Z,11.43
2023-01-13T07:51:06.621Z,10.90
2023-01-13T07:54:09.375Z,10.68
2023-01-13T07:57:14.204Z,10.38
2023-01-13T08:00:20.625Z,10.77
2023-01-13T08:03:24.384Z,11.27
2023-01-13T08:06:26.969Z,10.85
2023-01-13T08:09:29.754Z,10.30
2023-01-13T08:12:52.363Z,11.32
2023-01-13T08:16:08.281Z,11.10
2023-01-13T08:19:10.621Z,10.55
2023-01-13T08:22:13.404Z,11.60
2023-01-13T08:25:15.801Z,11.50
2023-01-13T08:28:18.560Z,10.88
2023-01-13T08:31:21.030Z,9.95
2023-01-13T08:34:23.833Z,10.18
2023-01-13T08:37:26.589Z,10.23
2023-01-13T08:40:29.541Z,9.60
2023-01-13T08:43:31.892Z,9.57
2023-01-13T08:46:35.233Z,9.65
2023-01-13T08:49:37.590Z,8.85
2023-01-13T08:52:41.004Z,9.73
2023-01-13T08:55:43.977Z,8.97
2023-01-13T08:58:46.790Z,7.50
2023-01-13T09:01:49.476Z,8.82
2023-01-13T09:04:53.415Z,9.23
2023-01-13T09:07:55.811Z,10.32
2023-01-13T09:10:58.764Z,9.25
2023-01-13T09:14:03.266Z,9.25
2023-01-13T09:17:07.573Z,9.27
2023-01-13T09:20:11.119Z,10.00
2023-01-13T09:23:13.886Z,10.18
2023-01-13T09:26:21.181Z,10.68
2023-01-13T09:29:24.137Z,10.98
2023-01-13T09:32:26.648Z,11.88
2023-01-13T09:35:32.248Z,10.03
2023-01-13T09:38:43.112Z,11.38
2023-01-13T09:42:24.839Z,11.57
2023-01-13T09:46:05.550Z,10.85
2023-01-13T09:49:26.140Z,10.88
2023-01-13T09:52:31.215Z,10.90
2023-01-13T09:55:54.955Z,11.75
2023-01-13T09:58:57.797Z,10.55
2023-01-13T10:02:18.536Z,13.20
2023-01-13T10:05:47.402Z,11.68
2023-01-13T10:08:50.650Z,11.43
2023-01-13T10:12:17.053Z,12.18
2023-01-13T10:15:26.517Z,12.23
2023-01-13T10:18:49.546Z,12.75
2023-01-13T10:22:37.185Z,11.88
2023-01-13T10:26:14.798Z,12.48
2023-01-13T10:29:30.480Z,12.07
2023-01-13T10:32:34.628Z,12.52
2023-01-13T10:36:14.406Z,12.40
2023-01-13T10:39:17.215Z,12.02
2023-01-13T10:42:24.534Z,12.85
2023-01-13T10:45:27.376Z,12.55
2023-01-13T10:48:57.304Z,12.57
2023-01-13T10:52:02.088Z,12.35
2023-01-13T10:55:23.531Z,12.65
2023-01-13T10:58:30.122Z,13.05
2023-01-13T11:01:33.170Z,12.98
2023-01-13T11:04:43.357Z,14.23
2023-01-13T11:07:52.502Z,12.35
2023-01-13T11:10:59.786Z,13.50
2023-01-13T11:14:23.309Z,13.13
2023-01-13T11:17:53.627Z,13.70
2023-01-13T11:20:58.995Z,13.13
2023-01-13T11:24:26.565Z,13.23
2023-01-13T11:27:49.400Z,12.82
2023-01-13T11:31:13.277Z,12.85
2023-01-13T11:34:24.817Z,13.63
2023-01-13T11:37:40.793Z,13.30
2023-01-13T11:40:47.014Z,14.57
2023-01-13T11:44:08.827Z,12.45
2023-01-13T11:47:13.469Z,13.62
2023-01-13T11:50:26.022Z,13.02
2023-01-13T11:53:56.856Z,13.80
2023-01-13T11:57:05.651Z,14.23
2023-01-13T12:00:19.847Z,14.30
2023-01-13T12:03:48.244Z,13.77
2023-01-13T12:07:36.999Z,14.27
2023-01-13T12:11:06.169Z,14.65
2023-01-13T12:14:30.864Z,14.75
2023-01-13T12:18:11.520Z,15.27
2023-01-13T12:21:37.615Z,14.95
2023-01-13T12:24:51.126Z,14.65
2023-01-13T12:28:11.172Z,15.05
2023-01-13T12:31:18.790Z,15.18
2023-01-13T12:34:49.823Z,14.98
2023-01-13T12:38:15.216Z,15.55
2023-01-13T12:41:37.559Z,16.23
2023-01-13T12:45:12.378Z,16.08
2023-01-13T12:48:45.651Z,16.25
2023-01-13T12:52:12.630Z,15.88
2023-01-13T12:55:19.433Z,16.05
2023-01-13T12:58:29.190Z,17.37
2023-01-13T13:01:36.186Z,17.62
2023-01-13T13:04:43.309Z,17.17
2023-01-13T13:07:53.254Z,17.75
2023-01-13T13:11:02.808Z,17.58
2023-01-13T13:14:10.739Z,17.52
2023-01-13T13:17:19.545Z,17.02
2023-01-13T13:21:00.278Z,16.52
2023-01-13T13:24:05.195Z,15.65
2023-01-13T13:27:31.863Z,15.63
2023-01-13T13:30:43.241Z,15.20
2023-01-13T13:33:59.245Z,16.15
2023-01-13T13:37:17.833Z,17.12
2023-01-13T13:40:39.254Z,15.90
2023-01-13T13:44:02.580Z,16.10
2023-01-13T13:47:06.471Z,15.93
2023-01-13T13:50:15.222Z,16.02
2023-01-13T13:53:19.946Z,15.43
2023-01-13T13:56:26.104Z,14.43
2023-01-13T13:59:33.707Z,14.45
2023-01-13T14:02:37.728Z,14.55
2023-01-13T14:08:54.359Z,15.57
2023-01-13T14:12:08.947Z,14.57
2023-01-13T14:18:35.781Z,13.85
2023-01-13T14:21:38.571Z,13.82
2023-01-13T14:24:47.174Z,12.97
2023-01-13T14:27:49.842Z,14.23
2023-01-13T14:30:56.699Z,12.98
2023-01-13T14:34:02.901Z,12.90
2023-01-13T14:37:25.532Z,13.62
2023-01-13T14:40:36.168Z,13.27
2023-01-13T14:43:44.576Z,13.07
2023-01-13T14:46:47.026Z,13.98
2023-01-13T14:50:11.446Z,13.90
2023-01-13T14:53:49.814Z,15.00
2023-01-13T14:56:55.192Z,14.50
2023-01-13T15:00:15.947Z,15.05
2023-01-13T15:03:21.030Z,13.80
2023-01-13T15:06:27.032Z,14.82
2023-01-13T15:09:39.916Z,14.43
2023-01-13T15:12:43.841Z,15.27
2023-01-13T15:15:50.870Z,14.57
2023-01-13T15:18:54.963Z,15.55
2023-01-13T15:21:57.766Z,14.63
2023-01-13T15:25:00.196Z,15.05
2023-01-13T15:28:07.323Z,14.20
2023-01-13T15:31:10.255Z,15.07
2023-01-13T15:34:12.997Z,14.23
2023-01-13T15:37:16.891Z,15.93
2023-01-13T15:40:26.511Z,14.05
2023-01-13T15:43:47.477Z,14.70
2023-01-13T15:46:52.274Z,15.00
2023-01-13T15:49:54.810Z,14.82
2023-01-13T15:52:57.658Z,15.13
2023-01-13T15:56:00.707Z,13.77
2023-01-13T15:59:04.921Z,15.07
2023-01-13T16:02:14.945Z,14.60
2023-01-13T16:05:17.955Z,14.25
2023-01-13T16:08:22.885Z,14.30
2023-01-13T16:11:25.815Z,14.50
2023-01-13T16:14:29.497Z,14.90
2023-01-13T16:20:36.833Z,13.80
2023-01-13T16:23:39.997Z,13.23
2023-01-13T16:26:42.342Z,13.52
2023-01-13T16:29:46.227Z,14.23
2023-01-13T16:32:48.709Z,14.32
2023-01-13T16:36:10.126Z,15.77
2023-01-13T16:39:21.578Z,14.77
2023-01-13T16:42:24.472Z,14.65
2023-01-13T16:45:27.460Z,13.85
2023-01-13T16:48:30.180Z,15.18
2023-01-13T16:51:33.429Z,15.18
2023-01-13T16:54:36.484Z,14.23
2023-01-13T16:57:38.907Z,14.00
2023-01-13T17:00:41.602Z,14.35
2023-01-13T17:03:44.546Z,15.20
2023-01-13T17:06:59.175Z,15.63
2023-01-13T17:10:03.717Z,13.75
2023-01-13T17:13:15.604Z,14.48
2023-01-13T17:16:21.973Z,14.93
2023-01-13T17:19:25.697Z,14.85
2023-01-13T17:22:28.158Z,15.75
2023-01-13T17:25:30.820Z,14.38
2023-01-13T17:28:33.280Z,13.57
2023-01-13T17:31:36.409Z,13.52
2023-01-13T17:34:40.203Z,14.07
2023-01-13T17:40:44.929Z,12.45
2023-01-13T17:43:47.628Z,12.02
2023-01-13T17:46:50.292Z,12.52
2023-01-13T17:49:52.986Z,12.93
2023-01-13T17:52:55.616Z,13.05
2023-01-13T17:55:58.561Z,13.57
2023-01-13T17:59:47.107Z,13.70
2023-01-13T18:02:49.785Z,12.90
2023-01-13T18:05:52.543Z,13.05
2023-01-13T18:08:55.463Z,13.35
2023-01-13T18:11:58.886Z,13.80
2023-01-13T18:15:01.242Z,13.30
2023-01-13T18:18:04.166Z,14.20
2023-01-13T18:21:26.127Z,14.82
2023-01-13T18:24:47.731Z,12.82
2023-01-13T18:27:54.159Z,13.98
2023-01-13T18:30:57.123Z,13.02
2023-01-13T18:34:05.069Z,13.40
2023-01-13T18:37:10.217Z,14.48
2023-01-13T18:40:16.069Z,15.73
2023-01-13T18:44:08.806Z,14.75
2023-01-13T18:47:11.240Z,15.55
2023-01-13T18:50:14.017Z,14.75
2023-01-13T18:53:16.494Z,15.80
2023-01-13T18:56:19.264Z,14.98
2023-01-13T18:59:21.821Z,15.55
2023-01-13T19:02:26.472Z,15.90
2023-01-13T19:05:29.011Z,15.18
2023-01-13T19:08:33.698Z,15.50
2023-01-13T19:11:36.308Z,15.65
2023-01-13T19:14:40.466Z,15.90
2023-01-13T19:17:45.089Z,15.85
2023-01-13T19:20:50.517Z,16.17
2023-01-13T19:23:54.541Z,14.80
2023-01-13T19:26:57.225Z,16.45
2023-01-13T19:30:00.621Z,16.42
2023-01-13T19:33:03.818Z,16.05
2023-01-13T19:36:07.911Z,16.42
2023-01-13T19:39:10.563Z,16.42
2023-01-13T19:42:32.310Z,15.82
2023-01-13T19:45:36.261Z,16.60
2023-01-13T19:48:40.157Z,16.00
2023-01-13T19:51:43.384Z,16.42
2023-01-13T19:54:46.305Z,16.17
2023-01-13T19:57:49.213Z,15.98
2023-01-13T20:00:55.166Z,16.17
2023-01-13T20:04:03.237Z,16.15
2023-01-13T20:07:08.364Z,15.98
2023-01-13T20:10:11.209Z,16.98
2023-01-13T20:13:14.548Z,15.70
2023-01-13T20:16:17.306Z,16.60
2023-01-13T20:19:19.661Z,15.90
2023-01-13T20:22:22.381Z,18.15
2023-01-13T20:25:25.653Z,16.12
2023-01-13T20:28:28.355Z,16.85
2023-01-13T20:31:33.001Z,17.58
2023-01-13T20:34:37.276Z,16.98
2023-01-13T20:37:43.989Z,18.00
2023-01-13T20:40:46.669Z,18.55
2023-01-13T20:44:07.802Z,17.87
2023-01-13T20:47:15.925Z,18.40
2023-01-13T20:50:18.556Z,17.98
2023-01-13T20:53:21.574Z,17.58
2023-01-13T20:56:24.080Z,18.80
2023-01-13T20:59:26.807Z,19.17
2023-01-13T21:02:31.497Z,17.75
2023-01-13T21:05:36.024Z,17.83
2023-01-13T21:08:38.429Z,18.42
2023-01-13T21:12:01.949Z,19.62
2023-01-13T21:15:22.917Z,18.85
2023-01-13T21:18:45.687Z,18.67
2023-01-13T21:21:50.485Z,18.75
2023-01-13T21:24:53.272Z,18.27
2023-01-13T21:28:03.204Z,18.87
2023-01-13T21:31:08.771Z,20.50
2023-01-13T21:34:11.844Z,21.00
2023-01-13T21:37:18.380Z,21.23
2023-01-13T21:40:20.970Z,19.87
2023-01-13T21:43:42.369Z,20.23
2023-01-13T21:47:03.338Z,21.27
2023-01-13T21:50:13.588Z,19.42
2023-01-13T21:53:15.961Z,19.77
2023-01-13T21:56:18.600Z,20.98
2023-01-13T21:59:20.943Z,20.95
2023-01-13T22:02:31.774Z,20.30
2023-01-13T22:05:35.800Z,20.35
2023-01-13T22:08:38.142Z,22.02
2023-01-13T22:11:40.762Z,20.92
2023-01-13T22:14:43.145Z,20.05
2023-01-13T22:17:48.364Z,20.40
2023-01-13T22:20:50.678Z,20.62
2023-01-13T22:23:54.843Z,21.20
2023-01-13T22:26:57.200Z,20.77
2023-01-13T22:30:00.207Z,21.42
2023-01-13T22:33:02.660Z,21.90
2023-01-13T22:36:06.161Z,21.90
2023-01-13T22:39:09.195Z,23.10
2023-01-13T22:42:11.834Z,21.95
2023-01-13T22:45:14.783Z,22.00
2023-01-13T22:48:17.409Z,23.50
2023-01-13T22:51:19.744Z,21.30
2023-01-13T22:54:22.368Z,20.77
2023-01-13T22:57:24.687Z,21.45
2023-01-13T23:00:27.468Z,21.50
2023-01-13T23:03:29.850Z,20.62
2023-01-13T23:06:33.990Z,19.83
2023-01-13T23:09:36.361Z,20.33
2023-01-13T23:12:39.017Z,20.10
2023-01-13T23:15:41.484Z,19.80
2023-01-13T23:18:48.194Z,22.23
2023-01-13T23:21:50.576Z,22.37
2023-01-13T23:24:53.174Z,22.65
2023-01-13T23:27:55.983Z,22.13
2023-01-13T23:30:58.910Z,21.97
2023-01-13T23:34:01.575Z,21.85
2023-01-13T23:37:04.306Z,20.85
2023-01-13T23:40:07.279Z,20.90
2023-01-13T23:43:09.946Z,22.05
2023-01-13T23:46:13.969Z,22.95
2023-01-13T23:49:16.702Z,21.17
2023-01-13T23:52:19.266Z,22.48
2023-01-13T23:55:25.654Z,21.70
2023-01-13T23:58:30.928Z,23.48
